Time;durP1;ratioP1;P1;durP2;ratioP2;P2;SDS_P1;SDS_P2;PMS_P1;PMS_P2;Temp;Humidity;BMP_temperature;BMP_pressure;BME280_temperature;BME280_humidity;BME280_pressure;Samples;Min_cycle;Max_cycle;Signal;HPM_P1;HPM_P2
2022/10/10 00:01:39;;;;;;;1999.90;999.90;;;17.20;99.90;;;;;;5054018;28;20025;-72
2022/10/10 00:04:05;;;;;;;1999.90;999.90;;;17.20;99.90;;;;;;5054179;28;20083;-78
2022/10/10 00:06:31;;;;;;;1999.90;999.90;;;17.10;99.90;;;;;;5054481;28;20025;-73
2022/10/10 00:08:57;;;;;;;1999.90;999.90;;;17.10;99.90;;;;;;5054126;28;20036;-72
2022/10/10 00:11:23;;;;;;;1999.90;999.90;;;17.20;99.90;;;;;;5054592;28;20029;-78
2022/10/10 00:13:50;;;;;;;1999.90;999.90;;;17.20;99.90;;;;;;5053922;28;20024;-78
2022/10/10 00:16:17;;;;;;;1999.90;999.90;;;17.20;99.90;;;;;;5052833;28;20036;-72
2022/10/10 00:18:43;;;;;;;1999.90;999.90;;;17.10;99.90;;;;;;5053382;28;20492;-72
2022/10/10 00:21:09;;;;;;;1999.90;999.90;;;17.10;99.90;;;;;;5053225;28;20029;-78
2022/10/10 00:23:35;;;;;;;1999.90;999.90;;;17.10;99.90;;;;;;5054103;28;20036;-78
2022/10/10 00:26:01;;;;;;;1999.90;999.90;;;17.10;99.90;;;;;;5053961;28;20033;-78
2022/10/10 00:28:26;;;;;;;1999.90;999.90;;;17.00;99.90;;;;;;5053620;28;20112;-73
2022/10/10 00:30:52;;;;;;;1999.90;999.90;;;17.00;99.90;;;;;;5053665;28;20045;-78
2022/10/10 00:33:18;;;;;;;1999.90;999.90;;;17.00;99.90;;;;;;5053742;28;20029;-78
2022/10/10 00:35:43;;;;;;;1999.90;999.90;;;17.00;99.90;;;;;;5053014;28;20032;-79
2022/10/10 00:38:09;;;;;;;1999.90;999.90;;;16.90;99.90;;;;;;5053525;28;20017;-73
2022/10/10 00:40:47;;;;;;;1999.90;999.90;;;16.90;99.90;;;;;;5053766;28;20045;-78
2022/10/10 00:43:14;;;;;;;1999.90;999.90;;;16.90;99.90;;;;;;5034055;28;20049;-78
2022/10/10 00:45:41;;;;;;;1999.90;999.90;;;16.90;99.90;;;;;;5053588;28;20102;-72
2022/10/10 00:48:21;;;;;;;1999.90;999.90;;;16.90;99.90;;;;;;5053499;28;20025;-78
2022/10/10 00:50:52;;;;;;;1999.90;999.90;;;16.80;99.90;;;;;;5053198;28;20024;-78
2022/10/10 00:53:22;;;;;;;1999.90;999.90;;;16.80;99.90;;;;;;5052706;28;20104;-73
2022/10/10 00:55:48;;;;;;;1999.90;999.90;;;16.80;99.90;;;;;;5053301;28;20025;-78
2022/10/10 00:58:15;;;;;;;1999.90;999.90;;;16.70;99.90;;;;;;5053514;28;20032;-78
2022/10/10 01:00:41;;;;;;;1999.90;999.90;;;16.70;99.90;;;;;;5052796;28;20075;-79
2022/10/10 01:03:06;;;;;;;1999.90;999.90;;;16.70;99.90;;;;;;5053311;28;20067;-73
2022/10/10 01:05:32;;;;;;;1999.90;999.90;;;16.70;99.90;;;;;;5053288;28;20033;-78
2022/10/10 01:08:00;;;;;;;1999.90;999.90;;;16.70;99.90;;;;;;5043642;28;20071;-72
2022/10/10 01:10:26;;;;;;;1999.90;999.90;;;16.70;99.90;;;;;;5033243;28;20396;-78
2022/10/10 01:12:51;;;;;;;1999.90;999.90;;;16.60;99.90;;;;;;5032877;28;20029;-79
2022/10/10 01:15:42;;;;;;;1999.90;999.90;;;16.60;99.90;;;;;;5033142;28;20029;-78
2022/10/10 01:18:29;;;;;;;1999.90;999.90;;;16.60;99.90;;;;;;5039356;28;20033;-72
2022/10/10 01:21:08;;;;;;;1999.90;999.90;;;16.60;99.90;;;;;;5051978;28;20431;-72
2022/10/10 01:23:45;;;;;;;1999.90;999.90;;;16.60;99.90;;;;;;5052911;28;20021;-78
2022/10/10 01:26:42;;;;;;;1999.90;999.90;;;16.60;99.90;;;;;;5052744;28;20568;-78
2022/10/10 01:29:08;;;;;;;1999.90;999.90;;;16.60;99.90;;;;;;5052705;28;20036;-78
2022/10/10 01:31:38;;;;;;;1999.90;999.90;;;16.60;99.90;;;;;;5052734;28;20507;-73
2022/10/10 01:34:18;;;;;;;1999.90;999.90;;;16.60;99.90;;;;;;5052456;28;20773;-72
2022/10/10 01:36:54;;;;;;;1999.90;999.90;;;16.70;99.90;;;;;;5052703;28;20024;-78
2022/10/10 01:39:30;;;;;;;1999.90;999.90;;;16.70;99.90;;;;;;5052322;28;20107;-78
2022/10/10 01:42:05;;;;;;;1999.90;999.90;;;16.70;99.90;;;;;;5052093;28;20079;-78
2022/10/10 01:44:31;;;;;;;1999.90;999.90;;;16.70;99.90;;;;;;5052477;28;20021;-72
2022/10/10 01:46:57;;;;;;;1999.90;999.90;;;16.80;99.90;;;;;;5051773;28;20025;-73
2022/10/10 01:49:29;;;;;;;1999.90;999.90;;;16.70;99.90;;;;;;5052588;28;20029;-78
2022/10/10 01:52:10;;;;;;;1999.90;999.90;;;16.80;99.90;;;;;;5052157;28;20111;-79
2022/10/10 01:54:45;;;;;;;1999.90;999.90;;;16.80;99.90;;;;;;5052395;28;20458;-78
2022/10/10 01:57:19;;;;;;;1999.90;999.90;;;16.70;99.90;;;;;;5051351;28;20083;-72
2022/10/10 02:00:01;;;;;;;1999.90;999.90;;;16.70;99.90;;;;;;5052542;28;20032;-76
2022/10/10 02:03:17;;;;;;;1999.90;999.90;;;16.70;99.90;;;;;;5051368;28;20025;-78
2022/10/10 02:05:55;;;;;;;1999.90;999.90;;;16.70;99.90;;;;;;5029929;28;20036;-78
2022/10/10 02:08:34;;;;;;;1999.90;999.90;;;16.60;99.90;;;;;;5030072;28;20061;-78
2022/10/10 02:11:07;;;;;;;1999.90;999.90;;;16.60;99.90;;;;;;5030302;28;20486;-72
2022/10/10 02:13:42;;;;;;;1999.90;999.90;;;16.50;99.90;;;;;;5030138;28;20034;-72
2022/10/10 02:16:13;;;;;;;1999.90;999.90;;;16.50;99.90;;;;;;5030033;28;20489;-72
2022/10/10 02:18:44;;;;;;;1999.90;999.90;;;16.40;99.90;;;;;;5029906;28;20381;-72
2022/10/10 02:21:11;;;;;;;1999.90;999.90;;;16.40;99.90;;;;;;5029511;28;20041;-78
2022/10/10 02:23:39;;;;;;;1999.90;999.90;;;16.40;99.90;;;;;;5012834;28;20115;-78
2022/10/10 02:26:06;;;;;;;1999.90;999.90;;;16.40;99.90;;;;;;5030135;28;20037;-72
2022/10/10 02:28:42;;;;;;;1999.90;999.90;;;16.40;99.90;;;;;;5029997;28;20144;-78
2022/10/10 02:31:15;;;;;;;1999.90;999.90;;;16.40;99.90;;;;;;5029895;28;20054;-73
2022/10/10 02:33:46;;;;;;;1999.90;999.90;;;16.40;99.90;;;;;;5029148;28;20040;-78
2022/10/10 02:36:14;;;;;;;1999.90;999.90;;;16.40;99.90;;;;;;5029718;28;20099;-72
2022/10/10 02:38:41;;;;;;;1999.90;999.90;;;16.40;99.90;;;;;;5031413;28;20148;-72
2022/10/10 02:41:09;;;;;;;1999.90;999.90;;;16.30;99.90;;;;;;5051946;28;20036;-78
2022/10/10 02:43:36;;;;;;;1999.90;999.90;;;16.30;99.90;;;;;;5052000;28;20025;-78
2022/10/10 02:46:05;;;;;;;1999.90;999.90;;;16.30;99.90;;;;;;5051958;28;20032;-78
2022/10/10 02:48:31;;;;;;;1999.90;999.90;;;16.20;99.90;;;;;;5051360;28;20021;-78
2022/10/10 02:50:57;;;;;;;1999.90;999.90;;;16.20;99.90;;;;;;5050539;28;20067;-72
2022/10/10 02:53:22;;;;;;;1999.90;999.90;;;16.20;99.90;;;;;;5050504;28;20033;-78
2022/10/10 02:55:48;;;;;;;1999.90;999.90;;;16.10;99.90;;;;;;5051861;28;20029;-79
2022/10/10 02:58:14;;;;;;;1999.90;999.90;;;16.10;99.90;;;;;;5052778;28;20017;-79
2022/10/10 03:00:39;;;;;;;1999.90;999.90;;;16.00;99.90;;;;;;5055672;28;20031;-79
2022/10/10 03:03:05;;;;;;;1999.90;999.90;;;16.00;99.90;;;;;;5055639;28;20032;-72
2022/10/10 03:05:31;;;;;;;1999.90;999.90;;;15.90;99.90;;;;;;5055545;28;20032;-72
2022/10/10 03:07:57;;;;;;;1999.90;999.90;;;15.90;99.90;;;;;;5055622;28;20033;-79
2022/10/10 03:10:22;;;;;;;1999.90;999.90;;;15.90;99.90;;;;;;5055184;28;20400;-78
2022/10/10 03:12:48;;;;;;;1999.90;999.90;;;15.90;99.90;;;;;;5054643;28;20547;-72
2022/10/10 03:15:13;;;;;;;1999.90;999.90;;;15.80;99.90;;;;;;5055327;28;20064;-72
2022/10/10 03:17:39;;;;;;;1999.90;999.90;;;15.80;99.90;;;;;;5055538;28;20025;-79
2022/10/10 03:20:06;;;;;;;1999.90;999.90;;;15.70;99.90;;;;;;5054767;28;20025;-73
2022/10/10 03:22:31;;;;;;;1999.90;999.90;;;15.80;99.90;;;;;;5055130;28;20017;-72
2022/10/10 03:24:57;;;;;;;1999.90;999.90;;;15.80;99.90;;;;;;5054932;28;20029;-79
2022/10/10 03:27:22;;;;;;;1999.90;999.90;;;15.80;99.90;;;;;;5055506;28;20021;-79
2022/10/10 03:29:48;;;;;;;1999.90;999.90;;;15.70;99.90;;;;;;5054881;28;20098;-79
2022/10/10 03:32:14;;;;;;;1999.90;999.90;;;15.70;99.90;;;;;;5048049;28;20021;-79
2022/10/10 03:34:39;;;;;;;1999.90;999.90;;;15.70;99.90;;;;;;5054686;28;20021;-73
2022/10/10 03:37:05;;;;;;;1999.90;999.90;;;15.70;99.90;;;;;;5055001;28;20434;-78
2022/10/10 03:39:31;;;;;;;1999.90;999.90;;;15.70;99.90;;;;;;5054995;28;20100;-79
2022/10/10 03:41:57;;;;;;;1999.90;999.90;;;15.70;99.90;;;;;;5054773;28;20396;-72
2022/10/10 03:44:22;;;;;;;1999.90;999.90;;;15.70;99.90;;;;;;5054632;28;20024;-72
2022/10/10 03:46:48;;;;;;;1999.90;999.90;;;15.70;99.90;;;;;;5054660;28;20032;-72
2022/10/10 03:49:14;;;;;;;1999.90;999.90;;;15.70;99.90;;;;;;5054690;28;20112;-79
2022/10/10 03:51:39;;;;;;;1999.90;999.90;;;15.70;99.90;;;;;;5054536;28;20364;-79
2022/10/10 03:54:05;;;;;;;1999.90;999.90;;;15.70;99.90;;;;;;5053945;28;20025;-73
2022/10/10 03:56:31;;;;;;;1999.90;999.90;;;15.60;99.90;;;;;;5054669;28;20029;-72
2022/10/10 03:58:59;;;;;;;1999.90;999.90;;;15.60;99.90;;;;;;5054580;28;20113;-79
2022/10/10 04:01:25;;;;;;;1999.90;999.90;;;15.60;99.90;;;;;;5054462;28;20052;-80
2022/10/10 04:03:51;;;;;;;1999.90;999.90;;;15.60;99.90;;;;;;5054594;28;20431;-79
2022/10/10 04:06:17;;;;;;;1999.90;999.90;;;15.60;99.90;;;;;;5054373;28;20035;-79
2022/10/10 04:08:42;;;;;;;1999.90;999.90;;;15.60;99.90;;;;;;5035036;28;20036;-73
2022/10/10 04:11:08;;;;;;;1999.90;999.90;;;15.60;99.90;;;;;;5035478;28;20083;-73
2022/10/10 04:13:33;;;;;;;1999.90;999.90;;;15.60;99.90;;;;;;5054221;28;20809;-72
2022/10/10 04:15:59;;;;;;;1999.90;999.90;;;15.60;99.90;;;;;;5053291;28;20040;-80
2022/10/10 04:18:25;;;;;;;1999.90;999.90;;;15.60;99.90;;;;;;5053874;28;20032;-79
2022/10/10 04:20:51;;;;;;;1999.90;999.90;;;15.70;99.90;;;;;;5053609;28;20107;-72
2022/10/10 04:23:16;;;;;;;1999.90;999.90;;;15.70;99.90;;;;;;5054360;28;20029;-73
2022/10/10 04:25:43;;;;;;;1999.90;999.90;;;15.70;99.90;;;;;;5054256;28;20356;-80
2022/10/10 04:28:13;;;;;;;1999.90;999.90;;;15.80;99.90;;;;;;5053957;28;20059;-73
2022/10/10 04:30:39;;;;;;;1999.90;999.90;;;15.80;99.90;;;;;;5050916;28;20876;-79
2022/10/10 04:33:05;;;;;;;1999.90;999.90;;;15.80;99.90;;;;;;5053466;28;20108;-74
2022/10/10 04:35:31;;;;;;;1999.90;999.90;;;15.80;99.90;;;;;;5053833;28;20469;-73
2022/10/10 04:37:56;;;;;;;1999.90;999.90;;;15.80;99.90;;;;;;5053642;28;20034;-80
2022/10/10 04:40:22;;;;;;;1999.90;999.90;;;15.90;99.90;;;;;;5052554;28;20025;-79
2022/10/10 04:42:47;;;;;;;1999.90;999.90;;;15.90;99.90;;;;;;5053741;28;20104;-79
2022/10/10 04:45:13;;;;;;;1999.90;999.90;;;15.90;99.90;;;;;;5053466;28;20021;-79
2022/10/10 04:47:39;;;;;;;1999.90;999.90;;;15.90;99.90;;;;;;5053748;28;20107;-72
2022/10/10 04:50:05;;;;;;;1999.90;999.90;;;15.90;99.90;;;;;;5053238;28;20033;-79
2022/10/10 04:52:30;;;;;;;1999.90;999.90;;;15.90;99.90;;;;;;5052987;28;20029;-80
2022/10/10 04:54:56;;;;;;;1999.90;999.90;;;15.90;99.90;;;;;;5052522;28;20032;-72
2022/10/10 04:57:22;;;;;;;1999.90;999.90;;;15.90;99.90;;;;;;5053648;28;20060;-80
2022/10/10 04:59:47;;;;;;;1999.90;999.90;;;15.90;99.90;;;;;;5052850;28;20035;-73
2022/10/10 05:02:13;;;;;;;1999.90;999.90;;;15.90;99.90;;;;;;5052498;28;20078;-79
2022/10/10 05:04:39;;;;;;;1999.90;999.90;;;15.90;99.90;;;;;;5052801;28;20482;-72
2022/10/10 05:07:04;;;;;;;1999.90;999.90;;;16.00;99.90;;;;;;5052414;28;20499;-79
2022/10/10 05:09:32;;;;;;;1999.90;999.90;;;16.00;99.90;;;;;;5052933;28;20025;-72
2022/10/10 05:11:58;;;;;;;1999.90;999.90;;;16.00;99.90;;;;;;5052774;28;20029;-79
2022/10/10 05:14:24;;;;;;;1999.90;999.90;;;16.00;99.90;;;;;;5051870;28;20025;-71
2022/10/10 05:16:50;;;;;;;1999.90;999.90;;;16.00;99.90;;;;;;5052682;28;20361;-72
2022/10/10 05:19:15;;;;;;;1999.90;999.90;;;16.00;99.90;;;;;;5052261;28;20033;-77
2022/10/10 05:21:41;;;;;;;1999.90;999.90;;;15.90;99.90;;;;;;5052569;28;20025;-77
2022/10/10 05:24:07;;;;;;;1999.90;999.90;;;15.90;99.90;;;;;;5052310;28;20435;-77
2022/10/10 05:26:32;;;;;;;1999.90;999.90;;;15.90;99.90;;;;;;5049939;28;20111;-72
2022/10/10 05:28:58;;;;;;;1999.90;999.90;;;15.90;99.90;;;;;;5049596;28;20538;-77
2022/10/10 05:31:24;;;;;;;1999.90;999.90;;;15.90;99.90;;;;;;5042874;28;20389;-78
2022/10/10 05:33:50;;;;;;;1999.90;999.90;;;15.90;99.90;;;;;;5036255;28;20020;-78
2022/10/10 05:36:15;;;;;;;1999.90;999.90;;;15.90;99.90;;;;;;5042030;28;20036;-78
2022/10/10 05:38:41;;;;;;;1999.90;999.90;;;15.90;99.90;;;;;;5045556;28;20017;-72
2022/10/10 05:41:07;;;;;;;1999.90;999.90;;;15.90;99.90;;;;;;5051885;28;20025;-71
2022/10/10 05:43:34;;;;;;;1999.90;999.90;;;15.90;99.90;;;;;;5052093;28;20029;-79
2022/10/10 05:46:00;;;;;;;1999.90;999.90;;;15.90;99.90;;;;;;5052131;28;20035;-79
2022/10/10 05:48:25;;;;;;;1999.90;999.90;;;16.00;99.90;;;;;;5052042;28;20029;-79
2022/10/10 05:50:54;;;;;;;1999.90;999.90;;;16.00;99.90;;;;;;5051747;28;20094;-79
2022/10/10 05:53:22;;;;;;;1999.90;999.90;;;16.00;99.90;;;;;;5051556;28;20079;-72
2022/10/10 05:55:48;;;;;;;1999.90;999.90;;;16.00;99.90;;;;;;5051249;28;20718;-79
2022/10/10 05:58:14;;;;;;;1999.90;999.90;;;16.00;99.90;;;;;;5051884;28;20052;-72
2022/10/10 06:00:41;;;;;;;1999.90;999.90;;;15.90;99.90;;;;;;5052154;28;20115;-79
2022/10/10 06:03:11;;;;;;;1999.90;999.90;;;16.00;99.90;;;;;;5051325;28;20021;-78
2022/10/10 06:05:37;;;;;;;1999.90;999.90;;;15.90;99.90;;;;;;5046849;28;20500;-72
2022/10/10 06:08:03;;;;;;;1999.90;999.90;;;15.90;99.90;;;;;;5052017;28;20068;-72
2022/10/10 06:10:28;;;;;;;1999.90;999.90;;;15.80;99.90;;;;;;5046754;28;20101;-79
2022/10/10 06:12:54;;;;;;;1999.90;999.90;;;15.80;99.90;;;;;;5047057;28;20025;-72
2022/10/10 06:15:20;;;;;;;1999.90;999.90;;;15.80;99.90;;;;;;5047516;28;20029;-80
2022/10/10 06:17:45;;;;;;;1999.90;999.90;;;15.80;99.90;;;;;;5049711;28;20025;-73
2022/10/10 06:20:11;;;;;;;1999.90;999.90;;;15.80;99.90;;;;;;5049695;28;20029;-72
2022/10/10 06:22:37;;;;;;;1999.90;999.90;;;15.70;99.90;;;;;;5049972;28;20021;-73
2022/10/10 06:25:03;;;;;;;1999.90;999.90;;;15.80;99.90;;;;;;5049676;28;20043;-79
2022/10/10 06:27:28;;;;;;;1999.90;999.90;;;15.70;99.90;;;;;;5044729;28;20100;-72
2022/10/10 06:29:54;;;;;;;1999.90;999.90;;;15.80;99.90;;;;;;5050335;28;20035;-79
2022/10/10 06:32:19;;;;;;;1999.90;999.90;;;15.80;99.90;;;;;;5049971;28;20453;-72
2022/10/10 06:34:45;;;;;;;1999.90;999.90;;;15.80;99.90;;;;;;5053200;28;20039;-79
2022/10/10 06:37:11;;;;;;;1999.90;999.90;;;15.80;99.90;;;;;;5053929;28;20025;-80
2022/10/10 06:39:37;;;;;;;1999.90;999.90;;;15.90;99.90;;;;;;5054523;28;20519;-79
2022/10/10 06:42:03;;;;;;;1999.90;999.90;;;15.80;99.90;;;;;;5054591;28;20021;-80
2022/10/10 06:44:29;;;;;;;1999.90;999.90;;;15.90;99.90;;;;;;5053775;28;20029;-72
2022/10/10 06:46:54;;;;;;;1999.90;999.90;;;15.90;99.90;;;;;;5052928;28;20029;-80
2022/10/10 06:49:20;;;;;;;1999.90;999.90;;;15.90;99.90;;;;;;5053998;28;20040;-80
2022/10/10 06:51:46;;;;;;;1999.90;999.90;;;15.90;99.90;;;;;;5053756;28;20021;-80
2022/10/10 06:54:12;;;;;;;1999.90;999.90;;;15.90;99.90;;;;;;5053634;28;20075;-72
2022/10/10 06:56:37;;;;;;;1999.90;999.90;;;16.00;99.90;;;;;;5050380;28;20032;-80
2022/10/10 06:59:03;;;;;;;1999.90;999.90;;;16.00;99.90;;;;;;5049626;28;20021;-74
2022/10/10 07:01:29;;;;;;;1999.90;999.90;;;16.10;99.90;;;;;;5049469;28;20439;-77
2022/10/10 07:03:55;;;;;;;1999.90;999.90;;;16.10;99.90;;;;;;5048329;28;20104;-73
2022/10/10 07:06:20;;;;;;;1999.90;999.90;;;16.10;99.90;;;;;;5039294;28;20056;-77
2022/10/10 07:08:46;;;;;;;1999.90;999.90;;;16.10;99.90;;;;;;5048881;28;20031;-81
2022/10/10 07:11:12;;;;;;;1999.90;999.90;;;16.20;99.90;;;;;;5047333;28;20029;-73
2022/10/10 07:13:38;;;;;;;1999.90;999.90;;;16.20;99.90;;;;;;5051775;28;20395;-74
2022/10/10 07:16:04;;;;;;;1999.90;999.90;;;16.20;99.90;;;;;;5051042;28;20033;-73
2022/10/10 07:18:31;;;;;;;1999.90;999.90;;;16.20;99.90;;;;;;5051632;28;20026;-74
2022/10/10 07:21:00;;;;;;;1999.90;999.90;;;16.30;99.90;;;;;;5052318;28;20026;-73
2022/10/10 07:23:27;;;;;;;1999.90;999.90;;;16.40;99.90;;;;;;5052256;28;20028;-73
2022/10/10 07:26:01;;;;;;;1999.90;999.90;;;16.40;99.90;;;;;;5052205;28;20384;-73
2022/10/10 07:28:27;;;;;;;1999.90;999.90;;;16.40;99.90;;;;;;5050239;28;20031;-73
2022/10/10 07:31:01;;;;;;;1999.90;999.90;;;16.50;99.90;;;;;;5036970;28;20131;-81
2022/10/10 07:33:32;;;;;;;1999.90;999.90;;;16.50;99.90;;;;;;5053084;28;20108;-81
2022/10/10 07:35:57;;;;;;;1999.90;999.90;;;16.70;99.90;;;;;;5051836;28;20035;-73
2022/10/10 07:38:23;;;;;;;1999.90;999.90;;;16.80;99.90;;;;;;5050842;28;20535;-73
2022/10/10 07:40:48;;;;;;;1999.90;999.90;;;16.90;99.90;;;;;;5051180;28;20037;-80
2022/10/10 07:43:14;;;;;;;1999.90;999.90;;;17.10;99.90;;;;;;5052088;28;20048;-81
2022/10/10 07:45:40;;;;;;;1999.90;999.90;;;17.20;99.90;;;;;;5049640;28;20020;-73
2022/10/10 07:48:05;;;;;;;1999.90;999.90;;;17.20;99.90;;;;;;5051338;28;20074;-81
2022/10/10 07:50:31;;;;;;;1999.90;999.90;;;17.20;99.90;;;;;;5051737;28;20033;-74
2022/10/10 07:52:56;;;;;;;1999.90;999.90;;;17.20;99.90;;;;;;5051990;28;20033;-81
2022/10/10 07:55:22;;;;;;;1999.90;999.90;;;17.30;99.90;;;;;;5052014;28;20025;-73
2022/10/10 07:57:49;;;;;;;1999.90;999.90;;;17.30;99.90;;;;;;5049913;28;20025;-73
2022/10/10 08:00:15;;;;;;;1999.90;999.90;;;17.30;99.90;;;;;;5050912;28;20016;-81
2022/10/10 08:02:41;;;;;;;1999.90;999.90;;;17.10;99.90;;;;;;5048700;28;20052;-73
2022/10/10 08:05:07;;;;;;;1999.90;999.90;;;17.10;99.90;;;;;;5052253;28;20025;-73
2022/10/10 08:07:33;;;;;;;1999.90;999.90;;;17.10;99.90;;;;;;5046129;28;20412;-80
2022/10/10 08:09:59;;;;;;;1999.90;999.90;;;17.10;99.90;;;;;;5050972;28;20037;-80
2022/10/10 08:12:25;;;;;;;1999.90;999.90;;;17.00;99.90;;;;;;5050082;28;20028;-81
2022/10/10 08:14:51;;;;;;;1999.90;999.90;;;17.10;99.90;;;;;;5048237;28;20029;-74
2022/10/10 08:17:16;;;;;;;1999.90;999.90;;;17.20;99.90;;;;;;5051710;28;20036;-75
2022/10/10 08:19:42;;;;;;;1999.90;999.90;;;17.20;99.90;;;;;;5047766;28;20033;-80
2022/10/10 08:22:07;;;;;;;1999.90;999.90;;;17.30;99.90;;;;;;5050950;28;20065;-73
2022/10/10 08:24:33;;;;;;;1999.90;999.90;;;17.40;99.90;;;;;;5049434;28;20134;-81
2022/10/10 08:26:59;;;;;;;1999.90;999.90;;;17.60;99.90;;;;;;5051587;28;20040;-73
2022/10/10 08:29:24;;;;;;;1999.90;999.90;;;17.80;99.90;;;;;;5045736;28;20029;-73
2022/10/10 08:31:50;;;;;;;1999.90;999.90;;;18.00;99.90;;;;;;5050091;28;20392;-81
2022/10/10 08:34:15;;;;;;;1999.90;999.90;;;18.00;99.90;;;;;;5050667;28;20055;-78
2022/10/10 08:36:41;;;;;;;1999.90;999.90;;;18.10;99.90;;;;;;5049677;28;20353;-81
2022/10/10 08:39:07;;;;;;;1999.90;999.90;;;18.20;99.90;;;;;;5035624;28;20063;-75
2022/10/10 08:41:47;;;;;;;1999.90;999.90;;;18.30;99.90;;;;;;5050760;28;20518;-73
2022/10/10 08:44:25;;;;;;;1999.90;999.90;;;18.30;99.90;;;;;;5049561;28;20036;-81
2022/10/10 08:47:06;;;;;;;1999.90;999.90;;;18.40;99.90;;;;;;5049535;28;20029;-82
2022/10/10 08:49:46;;;;;;;1999.90;999.90;;;18.40;99.90;;;;;;5050198;28;20453;-73
2022/10/10 08:52:31;;;;;;;1999.90;999.90;;;18.50;99.90;;;;;;5050434;28;20029;-81
2022/10/10 08:55:02;;;;;;;1999.90;999.90;;;18.50;99.90;;;;;;5049816;28;20100;-74
2022/10/10 08:57:32;;;;;;;1999.90;999.90;;;18.40;99.90;;;;;;5046049;28;20104;-82
2022/10/10 09:00:03;;;;;;;1999.90;999.90;;;18.40;99.90;;;;;;5047277;28;20450;-82
2022/10/10 09:02:31;;;;;;;1999.90;999.90;;;18.40;99.90;;;;;;5041040;28;20064;-81
2022/10/10 09:04:57;;;;;;;1999.90;999.90;;;18.30;99.90;;;;;;5045607;28;20496;-81
2022/10/10 09:07:56;;;;;;;1999.90;999.90;;;18.30;99.90;;;;;;5047764;28;20025;-73
2022/10/10 09:10:54;;;;;;;1999.90;999.90;;;18.50;99.90;;;;;;5023055;28;20025;-73
2022/10/10 09:13:39;;;;;;;1999.90;999.90;;;18.60;99.90;;;;;;5041204;28;20037;-81
2022/10/10 09:16:29;;;;;;;1999.90;999.90;;;18.80;99.90;;;;;;5048813;28;20070;-81
2022/10/10 09:19:04;;;;;;;1999.90;999.90;;;18.80;99.90;;;;;;5049861;28;20525;-78
2022/10/10 09:21:35;;;;;;;1999.90;999.90;;;18.90;99.90;;;;;;5045118;28;20048;-73
2022/10/10 09:24:15;;;;;;;1999.90;999.90;;;19.00;99.90;;;;;;5041870;28;20488;-80
2022/10/10 09:26:46;;;;;;;1999.90;999.90;;;19.20;99.90;;;;;;5048147;28;20546;-81
2022/10/10 09:29:38;;;;;;;1999.90;999.90;;;19.30;99.90;;;;;;5051038;28;20047;-81
2022/10/10 09:32:17;;;;;;;1999.90;999.90;;;19.40;99.90;;;;;;5050187;28;20049;-81
2022/10/10 09:34:52;;;;;;;1999.90;999.90;;;19.50;99.90;;;;;;5048491;28;20053;-73
2022/10/10 09:37:28;;;;;;;1999.90;999.90;;;19.70;99.90;;;;;;5046723;28;20025;-81
2022/10/10 09:40:01;;;;;;;1999.90;999.90;;;19.80;99.90;;;;;;5050277;28;20473;-81
2022/10/10 09:42:36;;;;;;;1999.90;999.90;;;19.80;99.90;;;;;;5049637;28;20143;-80
2022/10/10 09:45:03;;;;;;;1999.90;999.90;;;19.70;99.90;;;;;;5047118;28;20381;-81
2022/10/10 09:47:28;;;;;;;1999.90;999.90;;;19.70;99.90;;;;;;5049783;28;20268;-74
2022/10/10 09:49:54;;;;;;;1999.90;999.90;;;19.60;99.90;;;;;;5042376;28;20028;-82
2022/10/10 09:52:29;;;;;;;1999.90;999.90;;;19.70;99.90;;;;;;5045463;28;20029;-82
2022/10/10 09:55:17;;;;;;;1999.90;999.90;;;19.80;99.90;;;;;;5049577;28;20037;-81
2022/10/10 09:57:42;;;;;;;1999.90;999.90;;;20.00;99.90;;;;;;5047303;28;20112;-79
2022/10/10 10:00:33;;;;;;;1999.90;999.90;;;20.20;99.90;;;;;;5048362;28;20104;-74
2022/10/10 10:03:04;;;;;;;1999.90;999.90;;;20.40;99.90;;;;;;5045561;28;20029;-82
2022/10/10 10:05:30;;;;;;;1999.90;999.90;;;20.40;99.90;;;;;;5047836;28;20040;-73
2022/10/10 10:07:57;;;;;;;1999.90;999.90;;;20.30;99.90;;;;;;5048222;28;20025;-82
2022/10/10 10:10:25;;;;;;;1999.90;999.90;;;20.40;99.90;;;;;;5048369;28;20037;-80
2022/10/10 10:12:52;;;;;;;1999.90;999.90;;;20.40;99.90;;;;;;5048352;28;20033;-73
2022/10/10 10:15:30;;;;;;;1999.90;999.90;;;20.40;99.90;;;;;;5049524;28;20025;-82
2022/10/10 10:18:26;;;;;;;1999.90;999.90;;;20.40;99.90;;;;;;5046761;28;20522;-82
2022/10/10 10:21:02;;;;;;;1999.90;999.90;;;20.20;99.90;;;;;;5049023;28;20037;-81
2022/10/10 10:23:34;;;;;;;1999.90;999.90;;;20.30;99.90;;;;;;5048318;28;20033;-74
2022/10/10 10:26:05;;;;;;;1999.90;999.90;;;20.30;99.90;;;;;;5047788;28;20029;-74
2022/10/10 10:28:38;;;;;;;1999.90;999.90;;;20.40;99.90;;;;;;5045407;28;20029;-81
2022/10/10 10:31:04;;;;;;;1999.90;999.90;;;20.60;99.90;;;;;;5048652;28;20414;-75
2022/10/10 10:33:39;;;;;;;1999.90;999.90;;;20.70;99.90;;;;;;5049270;28;20099;-82
2022/10/10 10:36:07;;;;;;;1999.90;999.90;;;20.90;99.90;;;;;;5049018;28;20025;-81
2022/10/10 10:38:49;;;;;;;1999.90;999.90;;;21.10;99.90;;;;;;5047938;28;20024;-75
2022/10/10 10:41:28;;;;;;;1999.90;999.90;;;21.20;99.90;;;;;;5048572;28;21224;-81
2022/10/10 10:44:12;;;;;;;1999.90;999.90;;;21.20;99.90;;;;;;5043217;28;20028;-81
2022/10/10 10:46:57;;;;;;;1999.90;999.90;;;21.10;99.90;;;;;;5042190;28;20031;-81
2022/10/10 10:49:40;;;;;;;1999.90;999.90;;;21.00;99.90;;;;;;5042987;28;20107;-73
2022/10/10 10:52:29;;;;;;;1999.90;999.90;;;21.00;99.90;;;;;;5044758;28;20047;-73
2022/10/10 10:55:02;;;;;;;1999.90;999.90;;;21.00;99.90;;;;;;5046187;28;20053;-82
2022/10/10 10:57:54;;;;;;;1999.90;999.90;;;21.20;99.90;;;;;;5045144;28;20079;-78
2022/10/10 11:00:20;;;;;;;1999.90;999.90;;;21.20;99.90;;;;;;5044376;28;20037;-80
2022/10/10 11:03:15;;;;;;;1999.90;999.90;;;21.30;99.90;;;;;;5043544;28;20025;-80
2022/10/10 11:05:49;;;;;;;1999.90;999.90;;;21.50;99.90;;;;;;5040683;28;20013;-74
2022/10/10 11:08:30;;;;;;;1999.90;999.90;;;21.60;99.90;;;;;;5041522;28;20460;-81
2022/10/10 11:11:26;;;;;;;1999.90;999.90;;;21.70;99.90;;;;;;5041464;28;20020;-82
2022/10/10 11:14:18;;;;;;;1999.90;999.90;;;21.90;99.90;;;;;;5043303;28;20029;-82
2022/10/10 11:16:51;;;;;;;1999.90;999.90;;;21.80;99.90;;;;;;5040605;28;20067;-82
2022/10/10 11:19:37;;;;;;;1999.90;999.90;;;22.00;99.90;;;;;;5040335;28;20033;-81
2022/10/10 11:22:38;;;;;;;1999.90;999.90;;;21.90;99.90;;;;;;5049826;28;20024;-80
2022/10/10 11:25:13;;;;;;;1999.90;999.90;;;21.90;99.90;;;;;;5048676;28;20462;-81
2022/10/10 11:27:56;;;;;;;1999.90;999.90;;;22.00;99.90;;;;;;5052494;28;20040;-74
2022/10/10 11:30:28;;;;;;;1999.90;999.90;;;22.00;99.90;;;;;;5051407;28;20032;-81
2022/10/10 11:33:09;;;;;;;1999.90;999.90;;;22.10;99.90;;;;;;5049204;28;20144;-73
2022/10/10 11:35:55;;;;;;;1999.90;999.90;;;22.00;99.90;;;;;;5062754;28;20108;-81
2022/10/10 11:38:47;;;;;;;1999.90;999.90;;;21.70;99.90;;;;;;5052140;28;20051;-81
2022/10/10 11:41:30;;;;;;;1999.90;999.90;;;21.80;99.90;;;;;;5039624;28;20045;-80
2022/10/10 11:44:18;;;;;;;;;;;21.90;99.90;;;;;;5046622;28;21455;-73
2022/10/10 11:47:07;;;;;;;1999.90;999.90;;;22.10;99.90;;;;;;5050031;28;19909;-80
2022/10/10 11:49:53;;;;;;;1999.90;999.90;;;22.10;99.90;;;;;;5051664;28;20037;-81
2022/10/10 11:52:28;;;;;;;1999.90;999.90;;;22.10;99.90;;;;;;5050238;28;20025;-72
2022/10/10 11:54:57;;;;;;;1999.90;999.90;;;22.00;99.90;;;;;;5056770;28;20063;-73
2022/10/10 11:57:56;;;;;;;1999.90;999.90;;;22.00;99.90;;;;;;5057658;28;20025;-80
2022/10/10 12:00:21;;;;;;;1999.90;999.90;;;21.70;99.90;;;;;;5049167;28;20462;-80
2022/10/10 12:02:47;;;;;;;1999.90;999.90;;;21.70;99.90;;;;;;5050102;28;20104;-74
2022/10/10 12:05:26;;;;;;;1999.90;999.90;;;21.60;99.90;;;;;;5045068;28;20028;-73
2022/10/10 12:08:01;;;;;;;1999.90;999.90;;;21.70;99.90;;;;;;5044114;28;20093;-80
2022/10/10 12:10:57;;;;;;;1999.90;999.90;;;21.60;99.90;;;;;;5049957;28;20025;-73
2022/10/10 12:13:43;;;;;;;1999.90;999.90;;;22.00;99.90;;;;;;5045715;28;20504;-73
2022/10/10 12:16:13;;;;;;;1999.90;999.90;;;22.40;99.90;;;;;;5048897;28;20033;-80